Port Sheldon, MI

11:08 PM EDT on July 29, 2016 (GMT -0400)
Stanton St. & 96th Ave. | | Change Station

Elev 636 ft 42.94 °N, 86.03 °W | Updated 2 minutes ago

Light Rain
Light Rain
68.9 °F
Feels Like 68.9 °F
N
3.2
Wind Variable Wind from NW

Today
High -- | Low -- °F
--% Chance of Precip.
Yesterday
High -- | Low -- °F
Precip. -- in
Pressure 29.99 in
Visibility 10.0 miles
Clouds Mostly Cloudy 4900 ft
Mostly Cloudy 7000 ft
Dew Point 60 °F
Humidity 73%
Rainfall 0.00 in
Snow Depth Not available.
6:32 AM 9:08 PM
Waning Crescent, 17% visible
METAR KBIV 300253Z AUTO 08009KT 10SM -RA BKN049 BKN070 21/16 A3000 RMK AO2 RAB47 SLP154 P0000 60000 T02110156 51008
Pressure 29.99 in
Visibility 10.0 miles
Clouds Mostly Cloudy 4900 ft
Mostly Cloudy 7000 ft
Dew Point 60 °F
Humidity 73%
Rainfall 0.00 in
Snow Depth Not available.
6:32 AM 9:08 PM
Waning Crescent, 17% visible
METAR KBIV 300253Z AUTO 08009KT 10SM -RA BKN049 BKN070 21/16 A3000 RMK AO2 RAB47 SLP154 P0000 60000 T02110156 51008

10-Day Weather Forecast

Almanac

Astronomy

Jul. 29, 2016 Rise Set
Actual Time
Civil Twilight
Nautical Twilight
Astronomical Twilight
Moon
Length of Visible Light
Length of Day
Tomorrow will be .
, % of the Moon is Illuminated

Today's Extremes

State Highs State Lows

Community

WunderPhotos

Upload Photos

1,928,492 photos uploaded!

WunderBlog® & News

Nearby

Air Quality

  Air Quality AQ Index Pollutant
Not available.

Snow Depth

Station Depth Elevation

Earthquake Activity

City Distance Mag. Time & Date
Minimum magnitude displayed is 2.5.

Coastal Water Temperatures

Place Temperature

Stations

Nearby Weather Stations

Station Location Temp. Windchill Dew Point Humidity Wind Precip. Elev Updated Type
                   

Watches & Warnings

There are currently no watches in effect.